sensor_id;sensor_type;location;lat;lon;timestamp;pressure;altitude;pressure_sealevel;temperature;humidity
49759;BME280;70329;45.524;10.194;2023-07-13T00:01:47;99787.69;;;21.99;87.71
49759;BME280;70329;45.524;10.194;2023-07-13T00:04:15;99772.06;;;22.14;85.50
49759;BME280;70329;45.524;10.194;2023-07-13T00:06:41;99775.50;;;22.23;84.66
49759;BME280;70329;45.524;10.194;2023-07-13T00:09:10;99781.25;;;22.30;83.87
49759;BME280;70329;45.524;10.194;2023-07-13T00:11:37;99803.47;;;22.27;89.60
49759;BME280;70329;45.524;10.194;2023-07-13T00:14:03;99811.56;;;22.32;91.44
49759;BME280;70329;45.524;10.194;2023-07-13T00:16:28;99801.50;;;22.27;92.06
49759;BME280;70329;45.524;10.194;2023-07-13T00:18:54;99805.84;;;22.25;92.60
49759;BME280;70329;45.524;10.194;2023-07-13T00:21:19;99807.63;;;22.01;94.94
49759;BME280;70329;45.524;10.194;2023-07-13T00:23:44;99804.59;;;21.91;96.69
49759;BME280;70329;45.524;10.194;2023-07-13T00:26:11;99807.53;;;21.98;97.65
49759;BME280;70329;45.524;10.194;2023-07-13T00:28:37;99815.63;;;22.03;98.95
49759;BME280;70329;45.524;10.194;2023-07-13T00:31:04;99817.34;;;21.92;98.21
49759;BME280;70329;45.524;10.194;2023-07-13T00:33:30;99831.22;;;21.88;100.00
49759;BME280;70329;45.524;10.194;2023-07-13T00:35:56;99834.31;;;21.71;100.00
49759;BME280;70329;45.524;10.194;2023-07-13T00:38:22;99836.72;;;21.57;100.00
49759;BME280;70329;45.524;10.194;2023-07-13T00:40:48;99838.13;;;21.51;100.00
49759;BME280;70329;45.524;10.194;2023-07-13T00:43:16;99844.53;;;21.52;100.00
49759;BME280;70329;45.524;10.194;2023-07-13T00:48:08;99856.06;;;21.38;100.00
49759;BME280;70329;45.524;10.194;2023-07-13T00:50:34;99863.81;;;21.44;100.00
49759;BME280;70329;45.524;10.194;2023-07-13T00:52:59;99856.81;;;21.51;98.96
49759;BME280;70329;45.524;10.194;2023-07-13T00:55:25;99849.94;;;21.32;100.00
49759;BME280;70329;45.524;10.194;2023-07-13T00:57:52;99859.28;;;21.24;100.00
49759;BME280;70329;45.524;10.194;2023-07-13T01:00:17;99863.00;;;21.44;100.00
49759;BME280;70329;45.524;10.194;2023-07-13T01:02:45;99859.34;;;21.28;100.00
49759;BME280;70329;45.524;10.194;2023-07-13T01:05:13;99864.84;;;21.24;100.00
49759;BME280;70329;45.524;10.194;2023-07-13T01:07:43;99866.75;;;21.36;100.00
49759;BME280;70329;45.524;10.194;2023-07-13T01:10:11;99872.88;;;21.41;100.00
49759;BME280;70329;45.524;10.194;2023-07-13T01:12:36;99874.50;;;21.42;100.00
49759;BME280;70329;45.524;10.194;2023-07-13T01:15:03;99879.66;;;21.28;100.00
49759;BME280;70329;45.524;10.194;2023-07-13T01:17:30;99884.34;;;21.24;100.00
49759;BME280;70329;45.524;10.194;2023-07-13T01:19:56;99879.06;;;21.35;100.00
49759;BME280;70329;45.524;10.194;2023-07-13T01:22:21;99872.19;;;20.92;100.00
49759;BME280;70329;45.524;10.194;2023-07-13T01:24:53;99875.38;;;20.67;100.00
49759;BME280;70329;45.524;10.194;2023-07-13T01:27:25;99881.38;;;20.81;100.00
49759;BME280;70329;45.524;10.194;2023-07-13T01:29:52;99884.03;;;21.02;100.00
49759;BME280;70329;45.524;10.194;2023-07-13T01:32:23;99888.16;;;21.20;100.00
49759;BME280;70329;45.524;10.194;2023-07-13T01:34:50;99894.03;;;21.30;100.00
49759;BME280;70329;45.524;10.194;2023-07-13T01:37:16;99896.78;;;21.42;100.00
49759;BME280;70329;45.524;10.194;2023-07-13T01:39:41;99908.16;;;21.50;100.00
49759;BME280;70329;45.524;10.194;2023-07-13T01:42:07;99912.22;;;21.52;100.00
49759;BME280;70329;45.524;10.194;2023-07-13T01:44:33;99909.59;;;21.59;100.00
49759;BME280;70329;45.524;10.194;2023-07-13T01:46:59;99902.59;;;21.50;100.00
49759;BME280;70329;45.524;10.194;2023-07-13T01:49:24;99912.84;;;21.33;100.00
49759;BME280;70329;45.524;10.194;2023-07-13T01:51:49;99913.53;;;21.30;100.00
49759;BME280;70329;45.524;10.194;2023-07-13T01:54:15;99909.97;;;21.30;100.00
49759;BME280;70329;45.524;10.194;2023-07-13T01:56:40;99919.91;;;21.43;100.00
49759;BME280;70329;45.524;10.194;2023-07-13T01:59:07;99921.28;;;21.49;100.00
49759;BME280;70329;45.524;10.194;2023-07-13T02:01:32;99918.13;;;21.51;100.00
49759;BME280;70329;45.524;10.194;2023-07-13T02:03:58;99923.91;;;21.58;100.00
49759;BME280;70329;45.524;10.194;2023-07-13T02:06:23;99932.00;;;21.63;100.00
49759;BME280;70329;45.524;10.194;2023-07-13T02:08:48;99929.66;;;21.65;99.97
49759;BME280;70329;45.524;10.194;2023-07-13T02:11:14;99928.84;;;21.64;98.47
49759;BME280;70329;45.524;10.194;2023-07-13T02:13:39;99925.72;;;21.66;98.84
49759;BME280;70329;45.524;10.194;2023-07-13T02:16:05;99924.00;;;21.61;98.69
49759;BME280;70329;45.524;10.194;2023-07-13T02:18:31;99931.03;;;21.71;97.59
49759;BME280;70329;45.524;10.194;2023-07-13T02:20:57;99934.16;;;21.69;97.22
49759;BME280;70329;45.524;10.194;2023-07-13T02:23:22;99936.22;;;21.57;98.24
49759;BME280;70329;45.524;10.194;2023-07-13T02:25:47;99937.84;;;21.58;98.46
49759;BME280;70329;45.524;10.194;2023-07-13T02:28:13;99939.56;;;21.62;98.49
49759;BME280;70329;45.524;10.194;2023-07-13T02:30:38;99938.63;;;21.58;98.50
49759;BME280;70329;45.524;10.194;2023-07-13T02:33:04;99938.63;;;21.58;98.80
49759;BME280;70329;45.524;10.194;2023-07-13T02:35:30;99938.84;;;21.65;99.18
49759;BME280;70329;45.524;10.194;2023-07-13T02:37:55;99945.44;;;21.73;98.48
49759;BME280;70329;45.524;10.194;2023-07-13T02:40:20;99949.41;;;21.72;98.69
49759;BME280;70329;45.524;10.194;2023-07-13T02:42:46;99961.00;;;21.74;98.83
49759;BME280;70329;45.524;10.194;2023-07-13T02:45:11;99961.91;;;21.78;98.48
49759;BME280;70329;45.524;10.194;2023-07-13T02:47:40;99961.28;;;21.84;98.76
49759;BME280;70329;45.524;10.194;2023-07-13T02:50:06;99952.34;;;21.91;98.82
49759;BME280;70329;45.524;10.194;2023-07-13T02:52:32;99954.78;;;21.92;99.06
49759;BME280;70329;45.524;10.194;2023-07-13T02:54:57;99954.16;;;21.99;99.34
49759;BME280;70329;45.524;10.194;2023-07-13T02:57:23;99957.41;;;22.01;99.04
49759;BME280;70329;45.524;10.194;2023-07-13T02:59:48;99956.97;;;21.99;98.27
49759;BME280;70329;45.524;10.194;2023-07-13T03:02:15;99960.47;;;21.96;97.16
49759;BME280;70329;45.524;10.194;2023-07-13T03:04:40;99964.06;;;21.96;97.38
49759;BME280;70329;45.524;10.194;2023-07-13T03:07:06;99962.53;;;21.99;97.31
49759;BME280;70329;45.524;10.194;2023-07-13T03:09:33;99960.31;;;22.04;96.63
49759;BME280;70329;45.524;10.194;2023-07-13T03:11:58;99955.78;;;22.00;95.31
49759;BME280;70329;45.524;10.194;2023-07-13T03:14:24;99949.59;;;22.07;94.65
49759;BME280;70329;45.524;10.194;2023-07-13T03:16:50;99945.91;;;22.02;93.94
49759;BME280;70329;45.524;10.194;2023-07-13T03:19:15;99948.59;;;21.99;92.21
49759;BME280;70329;45.524;10.194;2023-07-13T03:21:41;99948.88;;;21.94;93.31
49759;BME280;70329;45.524;10.194;2023-07-13T03:24:06;99954.44;;;21.94;92.81
49759;BME280;70329;45.524;10.194;2023-07-13T03:26:32;99950.13;;;21.96;92.67
49759;BME280;70329;45.524;10.194;2023-07-13T03:28:57;99955.69;;;21.96;92.59
49759;BME280;70329;45.524;10.194;2023-07-13T03:31:27;99965.81;;;21.89;94.05
49759;BME280;70329;45.524;10.194;2023-07-13T03:33:53;99961.88;;;21.90;94.22
49759;BME280;70329;45.524;10.194;2023-07-13T03:36:25;99961.44;;;21.88;95.39
49759;BME280;70329;45.524;10.194;2023-07-13T03:38:56;99960.88;;;21.70;94.15
49759;BME280;70329;45.524;10.194;2023-07-13T03:41:22;99950.66;;;21.74;93.54
49759;BME280;70329;45.524;10.194;2023-07-13T03:43:48;99943.34;;;21.70;92.16
49759;BME280;70329;45.524;10.194;2023-07-13T03:46:15;99952.00;;;21.80;91.46
49759;BME280;70329;45.524;10.194;2023-07-13T03:48:43;99949.97;;;21.77;91.74
49759;BME280;70329;45.524;10.194;2023-07-13T03:51:10;99945.88;;;21.75;92.63
49759;BME280;70329;45.524;10.194;2023-07-13T03:53:39;99941.47;;;21.74;92.24
49759;BME280;70329;45.524;10.194;2023-07-13T03:56:06;99949.41;;;21.72;92.58
49759;BME280;70329;45.524;10.194;2023-07-13T03:58:32;99953.63;;;21.81;91.63
49759;BME280;70329;45.524;10.194;2023-07-13T04:00:59;99950.41;;;21.79;92.07
49759;BME280;70329;45.524;10.194;2023-07-13T04:03:25;99948.78;;;21.78;92.52
49759;BME280;70329;45.524;10.194;2023-07-13T04:05:53;99942.59;;;21.85;91.38
49759;BME280;70329;45.524;10.194;2023-07-13T04:08:19;99939.34;;;21.83;91.60
49759;BME280;70329;45.524;10.194;2023-07-13T04:10:44;99945.84;;;21.87;91.89
49759;BME280;70329;45.524;10.194;2023-07-13T04:13:09;99942.16;;;21.83;91.85
49759;BME280;70329;45.524;10.194;2023-07-13T04:15:35;99946.19;;;21.85;91.84
49759;BME280;70329;45.524;10.194;2023-07-13T04:18:00;99953.06;;;21.88;91.09
49759;BME280;70329;45.524;10.194;2023-07-13T04:20:26;99960.63;;;21.87;91.04
49759;BME280;70329;45.524;10.194;2023-07-13T04:22:52;99966.53;;;21.86;90.43
49759;BME280;70329;45.524;10.194;2023-07-13T04:25:19;99976.38;;;21.83;90.60
49759;BME280;70329;45.524;10.194;2023-07-13T04:27:44;99971.63;;;21.84;90.84
49759;BME280;70329;45.524;10.194;2023-07-13T04:30:10;99969.09;;;21.91;90.16
49759;BME280;70329;45.524;10.194;2023-07-13T04:32:35;99976.03;;;21.97;90.82
49759;BME280;70329;45.524;10.194;2023-07-13T04:35:00;99978.91;;;22.00;91.16
49759;BME280;70329;45.524;10.194;2023-07-13T04:37:26;99981.44;;;22.05;91.43
49759;BME280;70329;45.524;10.194;2023-07-13T04:39:52;99978.03;;;22.12;91.50
49759;BME280;70329;45.524;10.194;2023-07-13T04:42:18;99976.50;;;22.15;92.25
49759;BME280;70329;45.524;10.194;2023-07-13T04:44:50;99988.09;;;22.17;93.78
49759;BME280;70329;45.524;10.194;2023-07-13T04:47:16;99992.41;;;22.14;95.11
49759;BME280;70329;45.524;10.194;2023-07-13T04:49:42;99989.41;;;22.19;94.47
49759;BME280;70329;45.524;10.194;2023-07-13T04:52:07;99987.50;;;22.23;94.35
49759;BME280;70329;45.524;10.194;2023-07-13T04:54:34;99989.22;;;22.28;93.28
49759;BME280;70329;45.524;10.194;2023-07-13T04:57:00;99985.25;;;22.29;92.40
49759;BME280;70329;45.524;10.194;2023-07-13T04:59:25;99983.66;;;22.28;93.29
49759;BME280;70329;45.524;10.194;2023-07-13T05:01:51;99988.41;;;22.27;92.88
49759;BME280;70329;45.524;10.194;2023-07-13T05:04:16;99982.91;;;22.15;93.35
49759;BME280;70329;45.524;10.194;2023-07-13T05:06:42;99974.00;;;22.25;94.10
49759;BME280;70329;45.524;10.194;2023-07-13T05:09:07;99971.69;;;22.43;92.55
49759;BME280;70329;45.524;10.194;2023-07-13T05:11:33;99967.81;;;22.63;90.02
49759;BME280;70329;45.524;10.194;2023-07-13T05:13:58;99971.88;;;22.81;88.82
49759;BME280;70329;45.524;10.194;2023-07-13T05:16:24;99973.03;;;23.11;87.28
49759;BME280;70329;45.524;10.194;2023-07-13T05:18:49;99972.91;;;23.58;84.80
49759;BME280;70329;45.524;10.194;2023-07-13T05:21:14;99980.25;;;23.86;83.53
49759;BME280;70329;45.524;10.194;2023-07-13T05:23:40;99975.53;;;23.51;85.48
49759;BME280;70329;45.524;10.194;2023-07-13T05:26:09;99980.63;;;23.30;87.20
49759;BME280;70329;45.524;10.194;2023-07-13T05:28:36;99976.69;;;23.15;88.21
49759;BME280;70329;45.524;10.194;2023-07-13T05:31:01;99989.75;;;23.27;87.77
49759;BME280;70329;45.524;10.194;2023-07-13T05:33:27;99987.56;;;23.36;86.69
49759;BME280;70329;45.524;10.194;2023-07-13T05:35:53;99991.44;;;23.32;86.13
49759;BME280;70329;45.524;10.194;2023-07-13T05:38:18;99998.31;;;23.18;87.36
49759;BME280;70329;45.524;10.194;2023-07-13T05:40:44;100000.28;;;23.18;87.61
49759;BME280;70329;45.524;10.194;2023-07-13T05:43:10;99994.63;;;23.14;87.24
49759;BME280;70329;45.524;10.194;2023-07-13T05:45:35;99994.28;;;23.16;89.13
49759;BME280;70329;45.524;10.194;2023-07-13T05:48:00;99979.34;;;22.93;91.33
49759;BME280;70329;45.524;10.194;2023-07-13T05:50:26;99987.72;;;22.93;92.78
49759;BME280;70329;45.524;10.194;2023-07-13T05:52:52;99975.84;;;22.96;93.12
49759;BME280;70329;45.524;10.194;2023-07-13T05:55:18;99976.47;;;22.89;93.31
49759;BME280;70329;45.524;10.194;2023-07-13T05:57:43;99986.47;;;22.90;93.57
49759;BME280;70329;45.524;10.194;2023-07-13T06:00:09;99989.25;;;22.90;93.35
49759;BME280;70329;45.524;10.194;2023-07-13T06:02:35;99994.94;;;22.94;92.64
49759;BME280;70329;45.524;10.194;2023-07-13T06:05:00;99990.16;;;22.94;92.53
49759;BME280;70329;45.524;10.194;2023-07-13T06:07:26;99985.13;;;23.00;91.76
49759;BME280;70329;45.524;10.194;2023-07-13T06:09:51;99977.41;;;23.12;90.37
49759;BME280;70329;45.524;10.194;2023-07-13T06:12:16;99998.94;;;23.28;89.29
49759;BME280;70329;45.524;10.194;2023-07-13T06:14:42;100003.63;;;23.39;88.23
49759;BME280;70329;45.524;10.194;2023-07-13T06:17:07;99995.81;;;23.48;88.16
49759;BME280;70329;45.524;10.194;2023-07-13T06:19:33;100009.16;;;23.55;89.32
49759;BME280;70329;45.524;10.194;2023-07-13T06:21:59;100019.91;;;23.53;88.97
49759;BME280;70329;45.524;10.194;2023-07-13T06:24:24;100016.63;;;23.51;88.45
49759;BME280;70329;45.524;10.194;2023-07-13T06:26:50;100015.69;;;23.43;88.94
49759;BME280;70329;45.524;10.194;2023-07-13T06:29:15;100020.47;;;23.43;89.67
49759;BME280;70329;45.524;10.194;2023-07-13T06:31:41;100035.31;;;23.31;89.75
49759;BME280;70329;45.524;10.194;2023-07-13T06:34:07;100029.19;;;23.26;87.77
49759;BME280;70329;45.524;10.194;2023-07-13T06:36:32;100030.03;;;23.26;86.53
49759;BME280;70329;45.524;10.194;2023-07-13T06:38:57;100032.53;;;23.31;86.19
49759;BME280;70329;45.524;10.194;2023-07-13T06:41:23;100040.31;;;23.38;85.34
49759;BME280;70329;45.524;10.194;2023-07-13T06:43:51;100044.75;;;23.39;83.70
49759;BME280;70329;45.524;10.194;2023-07-13T06:46:16;100047.97;;;23.41;83.53
49759;BME280;70329;45.524;10.194;2023-07-13T06:48:42;100050.31;;;23.39;85.59
49759;BME280;70329;45.524;10.194;2023-07-13T06:51:07;100050.41;;;23.27;80.58
49759;BME280;70329;45.524;10.194;2023-07-13T06:53:33;100043.72;;;23.31;80.32
49759;BME280;70329;45.524;10.194;2023-07-13T06:55:58;100046.72;;;23.38;79.32
49759;BME280;70329;45.524;10.194;2023-07-13T06:58:24;100049.97;;;23.59;78.27
49759;BME280;70329;45.524;10.194;2023-07-13T07:00:52;100055.53;;;23.75;76.85
49759;BME280;70329;45.524;10.194;2023-07-13T07:03:18;100055.63;;;23.98;76.70
49759;BME280;70329;45.524;10.194;2023-07-13T07:05:43;100053.78;;;24.44;76.18
49759;BME280;70329;45.524;10.194;2023-07-13T07:08:09;100041.75;;;25.08;70.22
49759;BME280;70329;45.524;10.194;2023-07-13T07:10:35;100043.84;;;25.14;69.69
49759;BME280;70329;45.524;10.194;2023-07-13T07:13:00;100042.50;;;25.05;71.11
49759;BME280;70329;45.524;10.194;2023-07-13T07:15:26;100044.28;;;24.90;70.49
49759;BME280;70329;45.524;10.194;2023-07-13T07:17:52;100037.13;;;24.96;70.59
49759;BME280;70329;45.524;10.194;2023-07-13T07:20:17;100041.63;;;25.01;69.62
49759;BME280;70329;45.524;10.194;2023-07-13T07:22:42;100030.41;;;25.23;68.86
49759;BME280;70329;45.524;10.194;2023-07-13T07:25:08;100022.06;;;25.53;66.60
49759;BME280;70329;45.524;10.194;2023-07-13T07:27:33;100018.47;;;25.86;64.96
49759;BME280;70329;45.524;10.194;2023-07-13T07:29:59;100015.38;;;26.24;64.49
49759;BME280;70329;45.524;10.194;2023-07-13T07:32:24;100010.59;;;26.28;64.34
49759;BME280;70329;45.524;10.194;2023-07-13T07:34:50;100023.50;;;26.36;62.88
49759;BME280;70329;45.524;10.194;2023-07-13T07:37:15;100015.03;;;26.29;62.76
49759;BME280;70329;45.524;10.194;2023-07-13T07:39:40;100021.06;;;26.31;62.02
49759;BME280;70329;45.524;10.194;2023-07-13T07:42:06;100029.31;;;26.17;63.40
49759;BME280;70329;45.524;10.194;2023-07-13T07:44:32;100036.78;;;26.06;63.15
49759;BME280;70329;45.524;10.194;2023-07-13T07:46:58;100049.16;;;26.01;61.45
49759;BME280;70329;45.524;10.194;2023-07-13T07:49:23;100056.78;;;26.01;61.26
49759;BME280;70329;45.524;10.194;2023-07-13T07:51:48;100050.97;;;25.87;64.10
49759;BME280;70329;45.524;10.194;2023-07-13T07:54:14;100043.78;;;25.89;63.06
49759;BME280;70329;45.524;10.194;2023-07-13T07:56:40;100032.84;;;25.81;61.03
49759;BME280;70329;45.524;10.194;2023-07-13T07:59:05;100020.53;;;25.59;64.09
49759;BME280;70329;45.524;10.194;2023-07-13T08:01:30;100026.97;;;25.60;61.80
49759;BME280;70329;45.524;10.194;2023-07-13T08:03:56;100020.91;;;25.58;62.40
49759;BME280;70329;45.524;10.194;2023-07-13T08:06:21;100019.91;;;25.46;61.44
49759;BME280;70329;45.524;10.194;2023-07-13T08:08:47;100016.47;;;25.30;63.38
49759;BME280;70329;45.524;10.194;2023-07-13T08:11:12;100022.97;;;25.34;64.45
49759;BME280;70329;45.524;10.194;2023-07-13T08:13:37;100029.81;;;25.37;62.72
49759;BME280;70329;45.524;10.194;2023-07-13T08:16:06;100035.88;;;25.42;62.62
49759;BME280;70329;45.524;10.194;2023-07-13T08:18:32;100020.16;;;25.34;63.92
49759;BME280;70329;45.524;10.194;2023-07-13T08:20:57;100006.50;;;25.33;63.22
49759;BME280;70329;45.524;10.194;2023-07-13T08:23:24;100010.19;;;25.37;63.85
49759;BME280;70329;45.524;10.194;2023-07-13T08:25:51;100011.00;;;25.37;63.85
49759;BME280;70329;45.524;10.194;2023-07-13T08:28:19;100023.56;;;25.47;64.02
49759;BME280;70329;45.524;10.194;2023-07-13T08:30:44;100023.91;;;25.45;64.29
49759;BME280;70329;45.524;10.194;2023-07-13T08:33:14;100023.38;;;25.36;66.25
49759;BME280;70329;45.524;10.194;2023-07-13T08:35:39;100021.19;;;25.23;67.37
49759;BME280;70329;45.524;10.194;2023-07-13T08:38:05;100005.19;;;25.27;66.85
49759;BME280;70329;45.524;10.194;2023-07-13T08:40:30;100001.31;;;25.35;66.94
49759;BME280;70329;45.524;10.194;2023-07-13T08:42:58;100001.38;;;25.38;67.56
49759;BME280;70329;45.524;10.194;2023-07-13T08:45:41;100008.69;;;25.46;67.27
49759;BME280;70329;45.524;10.194;2023-07-13T08:50:47;100030.84;;;25.52;63.99
49759;BME280;70329;45.524;10.194;2023-07-13T08:53:15;100042.25;;;25.66;64.54
49759;BME280;70329;45.524;10.194;2023-07-13T08:55:42;100039.28;;;25.81;63.46
49759;BME280;70329;45.524;10.194;2023-07-13T08:58:13;100032.63;;;25.93;62.19
49759;BME280;70329;45.524;10.194;2023-07-13T09:00:58;100034.16;;;26.20;62.34
49759;BME280;70329;45.524;10.194;2023-07-13T09:03:30;100043.41;;;26.21;63.09
49759;BME280;70329;45.524;10.194;2023-07-13T09:06:02;100048.69;;;25.96;67.27
49759;BME280;70329;45.524;10.194;2023-07-13T09:16:49;100046.78;;;27.17;64.23
49759;BME280;70329;45.524;10.194;2023-07-13T09:19:21;100058.84;;;26.74;64.94
49759;BME280;70329;45.524;10.194;2023-07-13T09:21:50;100057.09;;;26.99;64.86
49759;BME280;70329;45.524;10.194;2023-07-13T09:26:46;100068.72;;;26.98;64.74
49759;BME280;70329;45.524;10.194;2023-07-13T09:29:43;100070.47;;;26.76;64.12
49759;BME280;70329;45.524;10.194;2023-07-13T09:32:13;100058.38;;;26.69;64.61
49759;BME280;70329;45.524;10.194;2023-07-13T09:34:40;100057.16;;;26.70;64.79
49759;BME280;70329;45.524;10.194;2023-07-13T09:37:05;100052.09;;;26.12;67.30
49759;BME280;70329;45.524;10.194;2023-07-13T09:39:38;100059.09;;;26.25;68.25
49759;BME280;70329;45.524;10.194;2023-07-13T09:47:19;100068.41;;;26.03;68.42
49759;BME280;70329;45.524;10.194;2023-07-13T09:49:46;100068.88;;;26.09;68.89
49759;BME280;70329;45.524;10.194;2023-07-13T09:52:14;100063.88;;;26.21;68.74
49759;BME280;70329;45.524;10.194;2023-07-13T09:54:45;100080.25;;;26.16;68.02
49759;BME280;70329;45.524;10.194;2023-07-13T09:57:19;100079.22;;;26.31;68.66
49759;BME280;70329;45.524;10.194;2023-07-13T09:59:56;100063.59;;;26.33;66.84
49759;BME280;70329;45.524;10.194;2023-07-13T10:02:31;100076.75;;;26.26;66.25
49759;BME280;70329;45.524;10.194;2023-07-13T10:05:11;100077.28;;;26.38;66.96
49759;BME280;70329;45.524;10.194;2023-07-13T10:07:47;100075.22;;;26.69;67.17
49759;BME280;70329;45.524;10.194;2023-07-13T10:10:19;100070.66;;;26.90;66.92
49759;BME280;70329;45.524;10.194;2023-07-13T10:12:46;100087.25;;;27.50;65.44
49759;BME280;70329;45.524;10.194;2023-07-13T10:15:20;100099.94;;;27.88;64.17
49759;BME280;70329;45.524;10.194;2023-07-13T10:17:47;100092.97;;;27.67;62.50
49759;BME280;70329;45.524;10.194;2023-07-13T10:20:14;100095.00;;;27.70;63.84
49759;BME280;70329;45.524;10.194;2023-07-13T10:25:22;100087.31;;;27.64;60.88
49759;BME280;70329;45.524;10.194;2023-07-13T10:27:54;100086.28;;;27.86;61.15
49759;BME280;70329;45.524;10.194;2023-07-13T10:30:27;100090.09;;;28.22;61.46
49759;BME280;70329;45.524;10.194;2023-07-13T10:32:58;100087.28;;;28.22;59.46
49759;BME280;70329;45.524;10.194;2023-07-13T10:35:24;100079.63;;;28.26;60.84
49759;BME280;70329;45.524;10.194;2023-07-13T10:38:13;100076.56;;;28.73;58.50
49759;BME280;70329;45.524;10.194;2023-07-13T10:41:03;100064.91;;;28.78;57.31
49759;BME280;70329;45.524;10.194;2023-07-13T10:43:34;100066.13;;;28.88;54.48
49759;BME280;70329;45.524;10.194;2023-07-13T10:46:02;100056.09;;;28.98;54.63
49759;BME280;70329;45.524;10.194;2023-07-13T10:48:29;100058.88;;;28.87;55.17
49759;BME280;70329;45.524;10.194;2023-07-13T10:51:00;100058.06;;;28.79;56.50
49759;BME280;70329;45.524;10.194;2023-07-13T10:53:37;100048.81;;;28.86;56.57
49759;BME280;70329;45.524;10.194;2023-07-13T10:56:18;100049.66;;;29.01;56.57
49759;BME280;70329;45.524;10.194;2023-07-13T10:58:45;100035.53;;;29.36;52.50
49759;BME280;70329;45.524;10.194;2023-07-13T11:08:58;100025.34;;;29.91;49.99
49759;BME280;70329;45.524;10.194;2023-07-13T11:18:48;100013.25;;;29.77;53.03
49759;BME280;70329;45.524;10.194;2023-07-13T11:21:19;100007.69;;;29.56;50.94
49759;BME280;70329;45.524;10.194;2023-07-13T11:23:52;100005.25;;;29.54;50.95
49759;BME280;70329;45.524;10.194;2023-07-13T11:31:43;99997.09;;;29.91;49.59
49759;BME280;70329;45.524;10.194;2023-07-13T11:34:18;99990.69;;;29.73;49.43
49759;BME280;70329;45.524;10.194;2023-07-13T11:36:47;99988.69;;;29.84;47.83
49759;BME280;70329;45.524;10.194;2023-07-13T11:41:49;99980.66;;;29.55;47.49
49759;BME280;70329;45.524;10.194;2023-07-13T11:44:19;99973.06;;;29.41;48.60
49759;BME280;70329;45.524;10.194;2023-07-13T11:46:54;99980.75;;;29.26;51.02
49759;BME280;70329;45.524;10.194;2023-07-13T11:49:23;99974.28;;;29.29;51.87
49759;BME280;70329;45.524;10.194;2023-07-13T11:51:49;99983.56;;;29.33;51.53
49759;BME280;70329;45.524;10.194;2023-07-13T11:54:46;99972.28;;;29.26;50.12
49759;BME280;70329;45.524;10.194;2023-07-13T11:57:28;99967.41;;;29.37;48.52
49759;BME280;70329;45.524;10.194;2023-07-13T11:59:56;99974.63;;;29.56;49.33
49759;BME280;70329;45.524;10.194;2023-07-13T12:02:35;99972.16;;;29.72;48.25
49759;BME280;70329;45.524;10.194;2023-07-13T12:05:02;99969.28;;;29.79;46.96
49759;BME280;70329;45.524;10.194;2023-07-13T12:07:30;99970.59;;;29.57;46.63
49759;BME280;70329;45.524;10.194;2023-07-13T12:10:21;99964.53;;;29.59;47.75
49759;BME280;70329;45.524;10.194;2023-07-13T12:12:55;99958.75;;;30.01;48.65
49759;BME280;70329;45.524;10.194;2023-07-13T12:15:22;99952.16;;;30.22;48.09
49759;BME280;70329;45.524;10.194;2023-07-13T12:17:48;99960.16;;;30.34;49.25
49759;BME280;70329;45.524;10.194;2023-07-13T12:20:35;99954.44;;;30.48;48.11
49759;BME280;70329;45.524;10.194;2023-07-13T12:23:05;99955.28;;;30.41;46.39
49759;BME280;70329;45.524;10.194;2023-07-13T12:25:31;99951.69;;;30.30;46.16
49759;BME280;70329;45.524;10.194;2023-07-13T12:27:57;99956.56;;;30.85;44.44
49759;BME280;70329;45.524;10.194;2023-07-13T12:32:59;99956.63;;;31.22;45.57
49759;BME280;70329;45.524;10.194;2023-07-13T12:35:28;99955.91;;;31.14;44.46
49759;BME280;70329;45.524;10.194;2023-07-13T12:37:56;99961.00;;;30.24;46.34
49759;BME280;70329;45.524;10.194;2023-07-13T12:40:35;99953.06;;;30.70;45.30
49759;BME280;70329;45.524;10.194;2023-07-13T12:43:02;99942.19;;;30.65;45.67
49759;BME280;70329;45.524;10.194;2023-07-13T12:45:32;99936.94;;;30.64;43.96
49759;BME280;70329;45.524;10.194;2023-07-13T12:48:03;99948.28;;;30.60;46.06
49759;BME280;70329;45.524;10.194;2023-07-13T12:50:41;99948.09;;;30.85;45.54
49759;BME280;70329;45.524;10.194;2023-07-13T12:53:13;99939.66;;;30.78;45.02
49759;BME280;70329;45.524;10.194;2023-07-13T12:55:46;99941.03;;;31.07;45.87
49759;BME280;70329;45.524;10.194;2023-07-13T12:58:32;99949.13;;;31.05;44.64
49759;BME280;70329;45.524;10.194;2023-07-13T13:01:02;99958.66;;;31.22;42.88
49759;BME280;70329;45.524;10.194;2023-07-13T13:03:36;99972.50;;;31.12;43.32
49759;BME280;70329;45.524;10.194;2023-07-13T13:08:40;99968.50;;;31.06;43.04
49759;BME280;70329;45.524;10.194;2023-07-13T13:11:08;99977.94;;;30.93;45.33
49759;BME280;70329;45.524;10.194;2023-07-13T13:13:34;99973.88;;;30.94;44.91
49759;BME280;70329;45.524;10.194;2023-07-13T13:16:19;99978.19;;;30.57;45.56
49759;BME280;70329;45.524;10.194;2023-07-13T13:18:45;99985.63;;;30.92;45.81
49759;BME280;70329;45.524;10.194;2023-07-13T13:21:11;100013.44;;;30.97;47.22
49759;BME280;70329;45.524;10.194;2023-07-13T13:23:37;100002.22;;;30.80;46.41
49759;BME280;70329;45.524;10.194;2023-07-13T13:26:05;100000.78;;;30.57;47.91
49759;BME280;70329;45.524;10.194;2023-07-13T13:28:31;99995.66;;;30.38;46.10
49759;BME280;70329;45.524;10.194;2023-07-13T13:30:57;99987.97;;;30.35;47.21
49759;BME280;70329;45.524;10.194;2023-07-13T13:33:23;99988.94;;;30.11;48.48
49759;BME280;70329;45.524;10.194;2023-07-13T13:35:48;99976.84;;;30.07;49.40
49759;BME280;70329;45.524;10.194;2023-07-13T13:38:17;99974.06;;;30.04;48.43
49759;BME280;70329;45.524;10.194;2023-07-13T13:40:44;99954.25;;;30.11;48.93